createdAt,value
2022-08-19T00:01:53.179Z,9.32
2022-08-19T00:04:22.593Z,8.77
2022-08-19T00:06:49.301Z,8.98
2022-08-19T00:09:17.572Z,8.38
2022-08-19T00:11:44.665Z,7.82
2022-08-19T00:14:12.354Z,9.38
2022-08-19T00:16:39.611Z,8.10
2022-08-19T00:19:06.937Z,8.23
2022-08-19T00:21:33.482Z,8.70
2022-08-19T00:24:00.600Z,9.50
2022-08-19T00:26:27.879Z,9.27
2022-08-19T00:28:54.998Z,9.13
2022-08-19T00:31:21.783Z,8.93
2022-08-19T00:33:51.426Z,9.00
2022-08-19T00:36:18.322Z,8.27
2022-08-19T00:38:45.353Z,8.60
2022-08-19T00:41:15.889Z,9.07
2022-08-19T00:43:42.476Z,9.23
2022-08-19T00:46:08.988Z,8.77
2022-08-19T00:48:36.375Z,9.18
2022-08-19T00:51:04.357Z,8.57
2022-08-19T00:53:32.377Z,8.63
2022-08-19T00:56:00.909Z,9.80
2022-08-19T00:58:30.037Z,8.68
2022-08-19T01:00:56.744Z,9.18
2022-08-19T01:03:23.585Z,8.52
2022-08-19T01:05:51.500Z,9.07
2022-08-19T01:08:18.953Z,9.18
2022-08-19T01:10:50.927Z,9.07
2022-08-19T01:13:19.800Z,9.32
2022-08-19T01:15:49.127Z,9.27
2022-08-19T01:18:17.504Z,9.45
2022-08-19T01:20:44.083Z,9.02
2022-08-19T01:23:10.859Z,9.40
2022-08-19T01:25:42.336Z,8.57
2022-08-19T01:28:10.962Z,9.32
2022-08-19T01:30:38.382Z,9.15
2022-08-19T01:33:06.954Z,9.73
2022-08-19T01:35:33.987Z,9.20
2022-08-19T01:38:02.409Z,9.27
2022-08-19T01:40:31.643Z,8.52
2022-08-19T01:42:58.225Z,9.30
2022-08-19T01:45:26.131Z,9.30
2022-08-19T01:48:01.482Z,9.55
2022-08-19T01:50:29.844Z,9.13
2022-08-19T01:53:02.188Z,9.50
2022-08-19T01:55:33.565Z,10.18
2022-08-19T01:58:03.079Z,9.65
2022-08-19T02:00:31.319Z,9.90
2022-08-19T02:02:57.943Z,8.85
2022-08-19T02:05:24.846Z,10.27
2022-08-19T02:07:51.646Z,10.52
2022-08-19T02:10:20.569Z,10.27
2022-08-19T02:12:47.654Z,9.68
2022-08-19T02:15:14.678Z,10.30
2022-08-19T02:17:41.264Z,9.90
2022-08-19T02:20:10.524Z,9.43
2022-08-19T02:22:37.121Z,9.85
2022-08-19T02:25:05.819Z,9.80
2022-08-19T02:27:32.340Z,9.90
2022-08-19T02:29:58.952Z,9.48
2022-08-19T02:32:25.436Z,9.82
2022-08-19T02:34:51.931Z,9.90
2022-08-19T02:37:37.237Z,10.02
2022-08-19T02:40:04.177Z,10.48
2022-08-19T02:42:39.315Z,9.90
2022-08-19T02:45:06.521Z,10.10
2022-08-19T02:47:33.060Z,9.25
2022-08-19T02:49:59.679Z,9.75
2022-08-19T02:52:26.456Z,9.93
2022-08-19T02:54:52.966Z,10.40
2022-08-19T02:57:19.430Z,10.55
2022-08-19T02:59:45.971Z,10.10
2022-08-19T03:02:12.522Z,10.05
2022-08-19T03:04:38.995Z,10.48
2022-08-19T03:07:10.680Z,11.32
2022-08-19T03:09:38.294Z,10.32
2022-08-19T03:12:05.760Z,10.90
2022-08-19T03:14:33.140Z,10.88
2022-08-19T03:16:59.947Z,10.50
2022-08-19T03:19:26.556Z,11.00
2022-08-19T03:21:53.077Z,10.10
2022-08-19T03:24:20.287Z,10.50
2022-08-19T03:26:48.887Z,11.07
2022-08-19T03:29:16.139Z,10.32
2022-08-19T03:31:57.210Z,10.77
2022-08-19T03:34:28.343Z,11.10
2022-08-19T03:36:56.030Z,10.40
2022-08-19T03:39:23.431Z,10.10
2022-08-19T03:42:38.125Z,10.18
2022-08-19T03:44:38.816Z,10.23
2022-08-19T03:47:06.280Z,11.35
2022-08-19T03:49:34.429Z,11.77
2022-08-19T03:52:05.995Z,13.00
2022-08-19T03:54:32.527Z,12.93
2022-08-19T03:56:59.167Z,13.05
2022-08-19T03:59:27.742Z,13.48
2022-08-19T04:01:55.727Z,15.45
2022-08-19T04:04:22.554Z,15.75
2022-08-19T04:06:49.252Z,15.63
2022-08-19T04:09:16.131Z,17.63
2022-08-19T04:11:47.570Z,16.23
2022-08-19T04:14:15.303Z,17.58
2022-08-19T04:16:43.559Z,17.63
2022-08-19T04:19:10.303Z,18.25
2022-08-19T04:21:36.875Z,19.60
2022-08-19T04:24:04.175Z,22.42
2022-08-19T04:26:35.625Z,22.15
2022-08-19T04:29:03.229Z,21.42
2022-08-19T04:31:31.707Z,20.98
2022-08-19T04:33:59.339Z,21.48
2022-08-19T04:36:27.471Z,25.17
2022-08-19T04:38:55.314Z,25.55
2022-08-19T04:41:41.265Z,25.63
2022-08-19T04:44:08.012Z,26.40
2022-08-19T04:46:40.186Z,26.98
2022-08-19T04:49:18.453Z,26.42
2022-08-19T04:51:47.453Z,27.58
2022-08-19T04:54:15.897Z,29.63
2022-08-19T04:56:53.908Z,30.38
2022-08-19T04:59:21.123Z,32.10
2022-08-19T05:01:50.734Z,35.28
2022-08-19T05:04:20.032Z,36.35
2022-08-19T05:06:54.340Z,35.55
2022-08-19T05:09:27.101Z,35.65
2022-08-19T05:11:58.294Z,36.83
2022-08-19T05:14:24.908Z,39.22
2022-08-19T05:17:02.433Z,36.95
2022-08-19T05:19:59.674Z,37.85
2022-08-19T05:22:38.428Z,40.67
2022-08-19T05:25:13.162Z,40.35
2022-08-19T05:27:41.236Z,40.60
2022-08-19T05:30:08.334Z,39.30
2022-08-19T05:32:35.125Z,39.05
2022-08-19T05:35:01.794Z,42.00
2022-08-19T05:37:29.692Z,41.20
2022-08-19T05:39:56.815Z,42.10
2022-08-19T05:42:24.086Z,39.45
2022-08-19T05:44:50.881Z,43.05
2022-08-19T05:47:17.793Z,40.28
2022-08-19T05:49:44.314Z,41.75
2022-08-19T05:52:12.976Z,40.70
2022-08-19T05:54:51.241Z,41.38
2022-08-19T05:57:19.327Z,43.63
2022-08-19T05:59:52.733Z,42.03
2022-08-19T06:02:26.042Z,43.13
2022-08-19T06:04:53.258Z,43.45
2022-08-19T06:07:20.478Z,43.83
2022-08-19T06:09:54.367Z,43.05
2022-08-19T06:12:32.702Z,44.28
2022-08-19T06:15:00.928Z,42.47
2022-08-19T06:17:29.168Z,42.97
2022-08-19T06:19:59.906Z,43.95
2022-08-19T06:22:28.291Z,42.28
2022-08-19T06:24:56.403Z,45.63
2022-08-19T06:27:23.618Z,43.63
2022-08-19T06:29:54.099Z,42.80
2022-08-19T06:32:23.191Z,44.78
2022-08-19T06:34:50.560Z,44.33
2022-08-19T06:37:17.279Z,43.15
2022-08-19T06:39:45.915Z,43.50
2022-08-19T06:42:14.477Z,43.72
2022-08-19T06:44:43.034Z,42.72
2022-08-19T06:47:23.972Z,43.05
2022-08-19T06:50:08.153Z,46.00
2022-08-19T06:52:38.269Z,43.45
2022-08-19T06:55:07.158Z,44.60
2022-08-19T06:57:34.398Z,43.63
2022-08-19T07:00:01.292Z,44.30
2022-08-19T07:02:28.007Z,43.63
2022-08-19T07:04:54.824Z,42.78
2022-08-19T07:07:22.087Z,41.50
2022-08-19T07:09:58.295Z,43.13
2022-08-19T07:12:28.077Z,42.38
2022-08-19T07:14:56.235Z,41.45
2022-08-19T07:17:24.217Z,40.75
2022-08-19T07:19:51.324Z,43.05
2022-08-19T07:22:24.501Z,42.45
2022-08-19T07:24:52.207Z,40.80
2022-08-19T07:27:25.206Z,40.78
2022-08-19T07:29:57.218Z,40.15
2022-08-19T07:32:26.862Z,40.33
2022-08-19T07:34:54.204Z,40.67
2022-08-19T07:37:22.863Z,39.42
2022-08-19T07:39:53.298Z,40.42
2022-08-19T07:42:22.029Z,38.92
2022-08-19T07:44:50.441Z,38.45
2022-08-19T07:47:58.577Z,37.00
2022-08-19T07:50:09.298Z,36.47
2022-08-19T07:52:41.181Z,36.80
2022-08-19T07:55:40.609Z,36.58
2022-08-19T07:57:57.059Z,35.90
2022-08-19T08:00:25.097Z,34.28
2022-08-19T08:02:55.706Z,34.30
2022-08-19T08:05:44.034Z,33.08
2022-08-19T08:08:48.368Z,32.15
2022-08-19T08:11:19.140Z,31.52
2022-08-19T08:14:01.234Z,31.05
2022-08-19T08:16:32.470Z,30.80
2022-08-19T08:18:59.257Z,29.08
2022-08-19T08:21:27.308Z,27.67
2022-08-19T08:23:56.864Z,27.67
2022-08-19T08:26:25.016Z,28.60
2022-08-19T08:28:52.300Z,27.85
2022-08-19T08:31:25.404Z,26.75
2022-08-19T08:33:53.014Z,29.60
2022-08-19T08:36:19.694Z,32.63
2022-08-19T08:38:47.370Z,31.13
2022-08-19T08:41:28.763Z,35.60
2022-08-19T08:43:56.325Z,35.17
2022-08-19T08:46:39.194Z,34.53
2022-08-19T08:49:12.977Z,34.97
2022-08-19T08:51:48.720Z,34.10
2022-08-19T08:54:31.249Z,34.10
2022-08-19T08:56:57.902Z,34.30
2022-08-19T08:59:27.672Z,33.88
2022-08-19T09:01:54.776Z,32.50
2022-08-19T09:04:23.830Z,31.13
2022-08-19T09:07:18.591Z,29.58
2022-08-19T09:09:58.252Z,30.50
2022-08-19T09:12:43.343Z,28.85
2022-08-19T09:15:14.455Z,28.55
2022-08-19T09:17:41.338Z,29.23
2022-08-19T09:20:14.225Z,27.90
2022-08-19T09:22:45.022Z,25.55
2022-08-19T09:25:14.072Z,30.25
2022-08-19T09:27:43.598Z,29.73
2022-08-19T09:30:17.254Z,31.05
2022-08-19T09:32:47.044Z,26.27
2022-08-19T09:35:21.578Z,21.13
2022-08-19T09:37:48.345Z,19.35
2022-08-19T09:40:18.209Z,18.75
2022-08-19T09:42:49.582Z,18.40
2022-08-19T09:45:20.883Z,20.67
2022-08-19T09:47:52.484Z,21.48
2022-08-19T09:50:21.958Z,22.52
2022-08-19T09:52:55.421Z,23.40
2022-08-19T09:55:31.213Z,21.63
2022-08-19T09:58:07.444Z,22.15
2022-08-19T10:00:36.623Z,20.75
2022-08-19T10:03:03.945Z,20.13
2022-08-19T10:05:54.648Z,19.00
2022-08-19T10:08:26.394Z,19.33
2022-08-19T10:10:56.884Z,16.75
2022-08-19T10:13:28.129Z,16.83
2022-08-19T10:15:57.035Z,15.60
2022-08-19T10:18:25.454Z,15.77
2022-08-19T10:21:04.434Z,14.55
2022-08-19T10:23:33.890Z,16.50
2022-08-19T10:26:12.956Z,14.57
2022-08-19T10:28:39.721Z,14.60
2022-08-19T10:31:16.042Z,14.35
2022-08-19T10:33:53.955Z,14.23
2022-08-19T10:36:23.478Z,12.13
2022-08-19T10:38:56.531Z,16.55
2022-08-19T10:41:26.726Z,14.50
2022-08-19T10:43:56.539Z,11.85
2022-08-19T10:46:34.398Z,13.25
2022-08-19T10:49:02.517Z,13.43
2022-08-19T10:51:48.694Z,14.48
2022-08-19T10:54:17.191Z,11.80
2022-08-19T10:56:57.870Z,11.70
2022-08-19T10:59:35.942Z,12.18
2022-08-19T11:02:08.256Z,11.55
2022-08-19T11:04:36.800Z,11.65
2022-08-19T11:07:05.994Z,12.18
2022-08-19T11:09:37.379Z,11.10
2022-08-19T11:12:08.619Z,11.55
2022-08-19T11:14:35.632Z,12.05
2022-08-19T11:17:03.531Z,10.80
2022-08-19T11:19:32.841Z,12.80
2022-08-19T11:22:03.953Z,12.40
2022-08-19T11:27:19.028Z,11.52
2022-08-19T11:29:46.681Z,12.55
2022-08-19T11:32:15.971Z,11.77
2022-08-19T11:34:42.598Z,12.55
2022-08-19T11:37:09.907Z,10.57
2022-08-19T11:39:37.828Z,10.02
2022-08-19T11:42:25.884Z,10.18
2022-08-19T11:44:54.308Z,9.05
2022-08-19T11:47:21.228Z,9.23
2022-08-19T11:49:48.722Z,7.93
2022-08-19T11:52:15.495Z,8.65
2022-08-19T11:54:42.348Z,9.68
2022-08-19T11:57:08.925Z,8.27
2022-08-19T11:59:35.478Z,8.75
2022-08-19T12:02:02.508Z,8.07
2022-08-19T12:04:29.214Z,7.78
2022-08-19T12:06:55.821Z,7.70
2022-08-19T12:09:23.249Z,5.10
2022-08-19T12:11:49.993Z,5.80
2022-08-19T12:14:17.390Z,5.85
2022-08-19T12:16:49.205Z,6.68
2022-08-19T12:19:22.402Z,7.32
2022-08-19T12:21:52.115Z,8.48
2022-08-19T12:24:24.542Z,8.50
2022-08-19T12:26:52.887Z,7.50
2022-08-19T12:29:23.729Z,7.70
2022-08-19T12:31:52.836Z,7.18
2022-08-19T12:34:21.827Z,7.25
2022-08-19T12:36:50.489Z,8.25
2022-08-19T12:39:18.469Z,8.25
2022-08-19T12:42:10.015Z,7.40
2022-08-19T12:44:41.558Z,7.63
2022-08-19T12:47:10.418Z,5.82
2022-08-19T12:49:54.160Z,6.78
2022-08-19T12:52:32.893Z,6.60
2022-08-19T12:55:00.310Z,6.45
2022-08-19T12:57:31.866Z,5.03
2022-08-19T13:00:08.311Z,5.50
2022-08-19T13:02:38.620Z,5.78
2022-08-19T13:05:07.854Z,5.80
2022-08-19T13:07:35.525Z,5.38
2022-08-19T13:10:05.999Z,4.70
2022-08-19T13:12:33.768Z,4.93
2022-08-19T13:15:02.695Z,6.43
2022-08-19T13:17:29.972Z,5.78
2022-08-19T13:19:59.869Z,5.20
2022-08-19T13:22:33.075Z,5.05
2022-08-19T13:24:59.722Z,5.35
2022-08-19T13:27:27.014Z,4.63
2022-08-19T13:30:12.425Z,4.97
2022-08-19T13:32:57.507Z,4.82
2022-08-19T13:35:24.828Z,4.55
2022-08-19T13:37:51.609Z,4.70
2022-08-19T13:40:25.518Z,4.60
2022-08-19T13:42:52.875Z,4.93
2022-08-19T13:45:21.002Z,4.40
2022-08-19T13:47:49.056Z,4.80
2022-08-19T13:50:18.115Z,4.60
2022-08-19T13:52:45.892Z,4.25
2022-08-19T13:55:13.577Z,4.50
2022-08-19T13:57:40.216Z,4.68
2022-08-19T14:00:15.961Z,4.70
2022-08-19T14:02:44.159Z,4.75
2022-08-19T14:05:12.213Z,4.70
2022-08-19T14:07:38.881Z,4.80
2022-08-19T14:10:07.141Z,4.28
2022-08-19T14:12:36.620Z,4.40
2022-08-19T14:15:05.677Z,4.43
2022-08-19T14:17:33.269Z,4.40
2022-08-19T14:20:10.825Z,4.20
2022-08-19T14:22:42.047Z,3.72
2022-08-19T14:25:11.997Z,3.97
2022-08-19T14:27:39.581Z,3.53
2022-08-19T14:30:07.735Z,3.40
2022-08-19T14:32:35.164Z,4.38
2022-08-19T14:35:02.466Z,3.30
2022-08-19T14:37:30.741Z,3.28
2022-08-19T14:39:59.567Z,3.70
2022-08-19T14:42:26.733Z,3.03
2022-08-19T14:44:53.387Z,3.45
2022-08-19T14:47:22.177Z,3.13
2022-08-19T14:49:50.861Z,2.80
2022-08-19T14:52:19.193Z,3.13
2022-08-19T14:54:49.248Z,2.88
2022-08-19T14:57:16.904Z,2.70
2022-08-19T14:59:44.621Z,2.67
2022-08-19T15:02:33.631Z,2.95
2022-08-19T15:05:01.767Z,3.50
2022-08-19T15:07:29.690Z,3.10
2022-08-19T15:09:57.377Z,3.08
2022-08-19T15:12:26.070Z,3.22
2022-08-19T15:14:56.035Z,3.22
2022-08-19T15:17:32.420Z,2.95
2022-08-19T15:20:13.473Z,3.15
2022-08-19T15:22:41.001Z,2.90
2022-08-19T15:25:08.352Z,2.88
2022-08-19T15:27:35.601Z,2.90
2022-08-19T15:30:02.212Z,2.78
2022-08-19T15:32:29.111Z,3.00
2022-08-19T15:35:03.209Z,3.00
2022-08-19T15:37:32.578Z,3.20
2022-08-19T15:40:04.824Z,2.95
2022-08-19T15:42:32.744Z,2.72
2022-08-19T15:45:00.705Z,2.92
2022-08-19T15:47:34.429Z,3.25
2022-08-19T15:50:05.523Z,3.30
2022-08-19T15:52:32.102Z,3.63
2022-08-19T15:55:00.376Z,3.42
2022-08-19T15:57:26.898Z,3.92
2022-08-19T16:00:11.884Z,3.42
2022-08-19T16:02:57.100Z,3.40
2022-08-19T16:05:45.398Z,3.15
2022-08-19T16:08:11.970Z,3.47
2022-08-19T16:10:39.591Z,3.55
2022-08-19T16:13:06.133Z,3.80
2022-08-19T16:15:33.898Z,3.35
2022-08-19T16:18:05.103Z,2.88
2022-08-19T16:20:31.797Z,2.80
2022-08-19T16:22:59.972Z,2.72
2022-08-19T16:25:29.873Z,2.22
2022-08-19T16:28:07.880Z,2.67
2022-08-19T16:30:35.923Z,2.70
2022-08-19T16:33:02.470Z,3.30
2022-08-19T16:35:28.974Z,3.47
2022-08-19T16:37:55.670Z,3.13
2022-08-19T16:40:22.448Z,3.10
2022-08-19T16:42:50.090Z,2.83
2022-08-19T16:45:20.762Z,3.67
2022-08-19T16:47:47.408Z,3.42
2022-08-19T16:50:14.176Z,4.05
2022-08-19T16:52:40.776Z,3.60
2022-08-19T16:55:08.426Z,3.30
2022-08-19T16:57:35.006Z,3.33
2022-08-19T17:00:08.682Z,3.20
2022-08-19T17:02:35.299Z,3.10
2022-08-19T17:05:03.408Z,3.00
2022-08-19T17:07:33.268Z,3.00
2022-08-19T17:10:01.043Z,3.17
2022-08-19T17:12:30.499Z,3.50
2022-08-19T17:14:59.299Z,3.20
2022-08-19T17:17:29.150Z,3.30
2022-08-19T17:19:59.230Z,3.50
2022-08-19T17:22:26.099Z,3.47
2022-08-19T17:24:56.296Z,3.25
2022-08-19T17:27:27.300Z,3.30
2022-08-19T17:30:03.021Z,3.33
2022-08-19T17:32:29.723Z,3.22
2022-08-19T17:34:56.284Z,3.88
2022-08-19T17:37:23.695Z,3.88
2022-08-19T17:39:50.336Z,3.72
2022-08-19T17:42:16.968Z,3.50
2022-08-19T17:44:44.765Z,3.13
2022-08-19T17:47:17.237Z,3.10
2022-08-19T17:49:46.996Z,3.15
2022-08-19T17:52:14.087Z,3.03
2022-08-19T17:54:47.975Z,3.00
2022-08-19T17:57:14.968Z,2.75
2022-08-19T17:59:44.494Z,3.42
2022-08-19T18:02:13.056Z,3.00
2022-08-19T18:04:40.078Z,3.08
2022-08-19T18:07:07.054Z,3.38
2022-08-19T18:09:41.573Z,4.10
2022-08-19T18:12:14.139Z,3.80
2022-08-19T18:14:42.833Z,3.42
2022-08-19T18:17:13.320Z,3.20
2022-08-19T18:19:43.613Z,3.63
2022-08-19T18:22:34.468Z,3.70
2022-08-19T18:25:04.158Z,3.47
2022-08-19T18:27:32.128Z,3.40
2022-08-19T18:30:00.411Z,3.38
2022-08-19T18:32:31.382Z,3.55
2022-08-19T18:35:00.632Z,3.72
2022-08-19T18:37:27.580Z,3.80
2022-08-19T18:40:14.488Z,3.75
2022-08-19T18:43:08.593Z,4.00
2022-08-19T18:46:01.509Z,4.32
2022-08-19T18:48:46.713Z,4.78
2022-08-19T18:51:17.872Z,4.93
2022-08-19T18:53:46.415Z,4.72
2022-08-19T18:56:14.271Z,43.38
2022-08-19T18:58:41.358Z,5.25
2022-08-19T19:01:12.595Z,4.40
2022-08-19T19:03:50.375Z,5.18
2022-08-19T19:06:21.620Z,4.38
2022-08-19T19:08:50.187Z,4.20
2022-08-19T19:11:19.951Z,3.90
2022-08-19T19:13:47.036Z,3.85
2022-08-19T19:16:13.570Z,4.03
2022-08-19T19:18:40.117Z,4.22
2022-08-19T19:21:08.195Z,3.55
2022-08-19T19:23:35.031Z,3.67
2022-08-19T19:26:01.708Z,3.40
2022-08-19T19:28:29.243Z,3.63
2022-08-19T19:30:59.634Z,3.60
2022-08-19T19:33:27.465Z,3.22
2022-08-19T19:35:54.189Z,3.25
2022-08-19T19:38:20.705Z,2.95
2022-08-19T19:40:47.497Z,3.28
2022-08-19T19:43:15.377Z,3.17
2022-08-19T19:45:42.025Z,3.38
2022-08-19T19:48:13.688Z,3.10
2022-08-19T19:50:40.699Z,2.90
2022-08-19T19:53:07.255Z,3.47
2022-08-19T19:55:33.810Z,2.83
2022-08-19T19:58:00.477Z,3.38
2022-08-19T20:00:27.042Z,3.00
2022-08-19T20:02:55.969Z,2.97
2022-08-19T20:05:23.082Z,2.95
2022-08-19T20:08:09.148Z,3.15
2022-08-19T20:10:36.319Z,3.20
2022-08-19T20:13:03.603Z,3.20
2022-08-19T20:15:31.316Z,2.88
2022-08-19T20:17:59.335Z,2.67
2022-08-19T20:20:25.962Z,2.50
2022-08-19T20:22:53.848Z,2.58
2022-08-19T20:25:22.122Z,2.15
2022-08-19T20:27:49.167Z,2.00
2022-08-19T20:30:19.601Z,1.88
2022-08-19T20:32:46.898Z,2.10
2022-08-19T20:35:14.217Z,1.45
2022-08-19T20:37:41.585Z,1.50
2022-08-19T20:40:11.595Z,1.20
2022-08-19T20:42:42.460Z,1.00
2022-08-19T20:45:29.475Z,1.15
2022-08-19T20:47:57.680Z,1.20
2022-08-19T20:50:24.211Z,1.48
2022-08-19T20:52:53.639Z,1.10
2022-08-19T20:55:22.228Z,1.20
2022-08-19T20:57:49.029Z,1.10
2022-08-19T21:00:15.724Z,1.27
2022-08-19T21:02:42.213Z,1.20
2022-08-19T21:05:08.909Z,1.15
2022-08-19T21:07:39.286Z,1.38
2022-08-19T21:10:06.827Z,1.40
2022-08-19T21:12:33.346Z,1.50
2022-08-19T21:14:59.874Z,1.20
2022-08-19T21:17:26.434Z,1.20
2022-08-19T21:19:52.984Z,1.50
2022-08-19T21:22:19.540Z,1.42
2022-08-19T21:24:46.081Z,1.27
2022-08-19T21:27:12.610Z,1.10
2022-08-19T21:29:40.517Z,1.10
2022-08-19T21:32:07.612Z,1.10
2022-08-19T21:34:34.271Z,1.23
2022-08-19T21:37:00.836Z,1.30
2022-08-19T21:39:27.469Z,1.35
2022-08-19T21:41:54.404Z,1.15
2022-08-19T21:44:21.112Z,1.40
2022-08-19T21:46:50.568Z,1.52
2022-08-19T21:49:17.380Z,1.70
2022-08-19T21:51:44.170Z,1.80
2022-08-19T21:54:14.061Z,1.25
2022-08-19T21:56:41.000Z,1.40
2022-08-19T21:59:07.661Z,1.13
2022-08-19T22:01:34.439Z,1.35
2022-08-19T22:04:00.977Z,1.20
2022-08-19T22:06:27.468Z,1.75
2022-08-19T22:08:55.384Z,1.95
2022-08-19T22:11:25.694Z,2.15
2022-08-19T22:13:56.449Z,1.73
2022-08-19T22:16:23.983Z,2.20
2022-08-19T22:18:51.048Z,2.17
2022-08-19T22:21:29.360Z,2.65
2022-08-19T22:24:06.038Z,3.42
2022-08-19T22:26:32.526Z,4.53
2022-08-19T22:29:00.701Z,3.95
2022-08-19T22:31:28.608Z,4.05
2022-08-19T22:33:55.798Z,3.47
2022-08-19T22:36:22.363Z,4.32
2022-08-19T22:38:48.838Z,4.85
2022-08-19T22:41:16.314Z,4.22
2022-08-19T22:43:43.518Z,4.07
2022-08-19T22:46:16.829Z,4.20
2022-08-19T22:48:44.753Z,3.95
2022-08-19T22:51:30.063Z,4.38
2022-08-19T22:53:57.197Z,3.75
2022-08-19T22:56:23.777Z,3.55
2022-08-19T22:58:53.326Z,3.63
2022-08-19T23:01:27.726Z,3.50
2022-08-19T23:03:57.018Z,3.60
2022-08-19T23:06:23.510Z,3.05
2022-08-19T23:09:01.167Z,3.05
2022-08-19T23:11:27.809Z,3.33
2022-08-19T23:13:54.534Z,2.80
2022-08-19T23:16:21.282Z,3.25
2022-08-19T23:18:48.308Z,3.13
2022-08-19T23:21:15.116Z,3.20
2022-08-19T23:23:41.759Z,3.53
2022-08-19T23:26:11.679Z,3.20
2022-08-19T23:28:57.371Z,3.85
2022-08-19T23:31:25.983Z,3.38
2022-08-19T23:33:53.346Z,3.17
2022-08-19T23:36:20.537Z,3.42
2022-08-19T23:38:48.034Z,3.90
2022-08-19T23:41:16.090Z,3.42
2022-08-19T23:43:42.933Z,3.58
2022-08-19T23:46:11.134Z,3.50
2022-08-19T23:48:37.783Z,2.78
2022-08-19T23:51:05.687Z,3.25
2022-08-19T23:53:32.370Z,2.67
2022-08-19T23:55:59.306Z,2.92
2022-08-19T23:58:27.779Z,3.00
